createdAt,value
2016-09-28T00:00:45.404Z,67.32
2016-09-28T00:01:46.153Z,66.55
2016-09-28T00:02:46.838Z,65.68
2016-09-28T00:03:47.535Z,65.88
2016-09-28T00:04:48.242Z,65.97
2016-09-28T00:05:49.038Z,65.88
2016-09-28T00:06:49.725Z,65.78
2016-09-28T00:07:50.503Z,65.59
2016-09-28T00:08:51.209Z,65.97
2016-09-28T00:09:51.902Z,65.2
2016-09-28T00:10:52.585Z,65.39
2016-09-28T00:11:53.267Z,65.55
2016-09-28T00:12:53.968Z,65.59
2016-09-28T00:13:54.673Z,65.3
2016-09-28T00:14:55.366Z,65.39
2016-09-28T00:15:56.042Z,65.88
2016-09-28T00:16:56.725Z,65.88
2016-09-28T00:17:57.453Z,65.78
2016-09-28T00:18:58.162Z,66.26
2016-09-28T00:19:58.859Z,65.65
2016-09-28T00:20:59.566Z,65.97
2016-09-28T00:22:00.245Z,65.36
2016-09-28T00:23:00.929Z,65.75
2016-09-28T00:24:01.622Z,65.84
2016-09-28T00:25:02.299Z,65.75
2016-09-28T00:26:02.979Z,65.75
2016-09-28T00:27:03.676Z,65.84
2016-09-28T00:28:04.362Z,66.03
2016-09-28T00:29:05.056Z,66.89
2016-09-28T00:30:05.740Z,66.51
2016-09-28T00:31:06.420Z,65.84
2016-09-28T00:32:07.109Z,66.42
2016-09-28T00:33:07.815Z,66.51
2016-09-28T00:34:08.502Z,66.51
2016-09-28T00:35:09.192Z,66.61
2016-09-28T00:36:09.871Z,66.42
2016-09-28T00:37:10.555Z,65.94
2016-09-28T00:38:11.242Z,66.32
2016-09-28T00:39:11.910Z,66.42
2016-09-28T00:40:12.590Z,66.42
2016-09-28T00:41:13.274Z,66.13
2016-09-28T00:42:13.960Z,65.94
2016-09-28T00:43:14.655Z,65.55
2016-09-28T00:44:15.349Z,65.55
2016-09-28T00:45:16.033Z,65.55
2016-09-28T00:46:16.729Z,65.75
2016-09-28T00:47:17.395Z,66.32
2016-09-28T00:48:18.117Z,66.13
2016-09-28T00:49:18.808Z,66.03
2016-09-28T00:50:19.506Z,65.84
2016-09-28T00:51:20.185Z,65.75
2016-09-28T00:52:20.923Z,65.94
2016-09-28T00:53:21.624Z,65.94
2016-09-28T00:54:22.329Z,65.17
2016-09-28T00:55:23.040Z,65.55
2016-09-28T00:56:23.735Z,64.98
2016-09-28T00:57:24.422Z,64.98
2016-09-28T00:58:25.098Z,64.89
2016-09-28T00:59:25.784Z,64.82
2016-09-28T01:00:26.497Z,65.01
2016-09-28T01:01:27.178Z,64.5
2016-09-28T01:02:27.872Z,64.43
2016-09-28T01:03:28.556Z,64.53
2016-09-28T01:04:29.231Z,64.25
2016-09-28T01:05:29.936Z,65.49
2016-09-28T01:06:30.627Z,64.53
2016-09-28T01:07:31.327Z,64.25
2016-09-28T01:08:32.014Z,63.67
2016-09-28T01:09:32.722Z,63.48
2016-09-28T01:10:33.396Z,63.76
2016-09-28T01:11:34.080Z,63.67
2016-09-28T01:12:35.669Z,63.76
2016-09-28T01:13:36.335Z,64.25
2016-09-28T01:14:37.037Z,64.43
2016-09-28T01:15:37.721Z,64.34
2016-09-28T01:16:38.405Z,64.43
2016-09-28T01:17:39.095Z,64.25
2016-09-28T01:18:39.781Z,64.25
2016-09-28T01:19:40.526Z,64.05
2016-09-28T01:20:41.219Z,63.76
2016-09-28T01:21:41.893Z,63.57
2016-09-28T01:22:42.606Z,63.67
2016-09-28T01:23:43.292Z,63.67
2016-09-28T01:24:43.975Z,63.38
2016-09-28T01:25:44.663Z,63.57
2016-09-28T01:26:45.360Z,63.57
2016-09-28T01:27:46.044Z,63.67
2016-09-28T01:28:46.731Z,63.57
2016-09-28T01:29:47.409Z,63.19
2016-09-28T01:30:48.091Z,63.38
2016-09-28T01:31:48.793Z,63.76
2016-09-28T01:32:49.478Z,63.57
2016-09-28T01:33:50.160Z,63.67
2016-09-28T01:34:50.859Z,63.57
2016-09-28T01:35:51.540Z,63.67
2016-09-28T01:36:52.223Z,63.67
2016-09-28T01:37:52.896Z,63.38
2016-09-28T01:38:53.583Z,63.09
2016-09-28T01:39:54.293Z,63.76
2016-09-28T01:40:54.979Z,63.29
2016-09-28T01:41:55.674Z,63.19
2016-09-28T01:42:56.356Z,63.38
2016-09-28T01:43:57.029Z,63.38
2016-09-28T01:44:57.716Z,63.48
2016-09-28T01:45:58.417Z,63.29
2016-09-28T01:46:59.096Z,62.81
2016-09-28T01:47:59.786Z,62.23
2016-09-28T01:49:00.472Z,62.71
2016-09-28T01:50:01.163Z,62.52
2016-09-28T01:51:01.858Z,62.33
2016-09-28T01:52:02.544Z,62.81
2016-09-28T01:53:03.233Z,62.81
2016-09-28T01:54:03.919Z,62.81
2016-09-28T01:55:04.601Z,62.62
2016-09-28T01:56:05.271Z,62.33
2016-09-28T01:57:05.995Z,62.42
2016-09-28T01:58:06.681Z,62.71
2016-09-28T01:59:07.365Z,62.52
2016-09-28T02:00:08.060Z,62.71
2016-09-28T02:01:08.770Z,62.23
2016-09-28T02:02:09.467Z,62.33
2016-09-28T02:03:10.153Z,62.42
2016-09-28T02:04:10.830Z,61.94
2016-09-28T02:05:11.508Z,62.23
2016-09-28T02:06:12.179Z,62.23
2016-09-28T02:07:12.856Z,62.23
2016-09-28T02:08:13.542Z,61.66
2016-09-28T02:09:14.215Z,61.85
2016-09-28T02:10:14.898Z,61.56
2016-09-28T02:11:15.623Z,61.94
2016-09-28T02:12:16.342Z,61.66
2016-09-28T02:13:17.011Z,62.13
2016-09-28T02:14:17.691Z,61.85
2016-09-28T02:15:18.376Z,61.85
2016-09-28T02:16:19.055Z,61.66
2016-09-28T02:17:19.754Z,62.13
2016-09-28T02:18:20.443Z,61.94
2016-09-28T02:19:21.140Z,61.37
2016-09-28T02:20:21.872Z,61.94
2016-09-28T02:21:22.567Z,61.75
2016-09-28T02:22:23.244Z,61.66
2016-09-28T02:23:23.933Z,61.94
2016-09-28T02:24:24.652Z,61.85
2016-09-28T02:25:25.358Z,60.79
2016-09-28T02:26:26.063Z,61.18
2016-09-28T02:27:26.746Z,61.46
2016-09-28T02:28:27.440Z,61.37
2016-09-28T02:29:28.141Z,61.27
2016-09-28T02:30:28.818Z,61.18
2016-09-28T02:31:29.497Z,61.27
2016-09-28T02:32:30.192Z,61.18
2016-09-28T02:33:30.867Z,61.27
2016-09-28T02:34:31.547Z,60.89
2016-09-28T02:35:32.268Z,60.6
2016-09-28T02:36:32.963Z,60.6
2016-09-28T02:37:33.638Z,61.37
2016-09-28T02:38:34.313Z,61.18
2016-09-28T02:39:34.992Z,60.89
2016-09-28T02:40:35.684Z,61.66
2016-09-28T02:41:36.386Z,61.75
2016-09-28T02:42:37.083Z,62.13
2016-09-28T02:43:37.775Z,61.85
2016-09-28T02:44:38.457Z,61.46
2016-09-28T02:45:39.143Z,61.94
2016-09-28T02:46:39.835Z,62.23
2016-09-28T02:47:40.512Z,61.85
2016-09-28T02:48:41.195Z,62.13
2016-09-28T02:49:41.877Z,62.23
2016-09-28T02:50:42.562Z,63
2016-09-28T02:51:43.241Z,62.42
2016-09-28T02:52:43.935Z,62.81
2016-09-28T02:53:44.611Z,62.23
2016-09-28T02:54:45.291Z,62.23
2016-09-28T02:55:45.985Z,63
2016-09-28T02:56:46.658Z,62.71
2016-09-28T02:57:47.335Z,63.48
2016-09-28T02:58:48.031Z,63.19
2016-09-28T02:59:48.704Z,63.19
2016-09-28T03:00:49.380Z,63.48
2016-09-28T03:01:50.108Z,63.67
2016-09-28T03:02:50.827Z,63.67
2016-09-28T03:03:51.500Z,63.48
2016-09-28T03:04:52.197Z,64.34
2016-09-28T03:05:52.893Z,64.34
2016-09-28T03:06:53.584Z,64.72
2016-09-28T03:07:54.269Z,64.53
2016-09-28T03:08:54.961Z,64.63
2016-09-28T03:09:55.666Z,64.34
2016-09-28T03:10:56.357Z,64.34
2016-09-28T03:11:57.097Z,64.72
2016-09-28T03:12:57.788Z,64.92
2016-09-28T03:13:58.471Z,64.92
2016-09-28T03:14:59.145Z,65.3
2016-09-28T03:15:59.850Z,65.3
2016-09-28T03:17:00.524Z,65.11
2016-09-28T03:18:01.205Z,65.3
2016-09-28T03:19:01.888Z,65.11
2016-09-28T03:20:02.592Z,65.11
2016-09-28T03:21:03.340Z,65.11
2016-09-28T03:22:04.012Z,64.82
2016-09-28T03:23:04.712Z,65.01
2016-09-28T03:24:05.400Z,65.3
2016-09-28T03:25:06.069Z,65.11
2016-09-28T03:27:07.437Z,65.01
2016-09-28T03:28:08.134Z,64.72
2016-09-28T03:29:08.830Z,64.05
2016-09-28T03:30:09.531Z,63.67
2016-09-28T03:31:10.225Z,63.76
2016-09-28T03:32:10.928Z,63.76
2016-09-28T03:33:11.602Z,63.76
2016-09-28T03:34:12.276Z,63.67
2016-09-28T03:35:12.974Z,63.67
2016-09-28T03:36:13.683Z,63
2016-09-28T03:37:14.369Z,63.48
2016-09-28T03:38:15.063Z,62.81
2016-09-28T03:39:15.749Z,62.71
2016-09-28T03:40:16.429Z,62.71
2016-09-28T03:41:17.109Z,63.29
2016-09-28T03:42:17.809Z,63.09
2016-09-28T03:43:18.482Z,62.9
2016-09-28T03:44:19.186Z,62.9
2016-09-28T03:45:19.873Z,62.71
2016-09-28T03:46:20.553Z,62.52
2016-09-28T03:47:21.237Z,62.81
2016-09-28T03:48:21.910Z,62.71
2016-09-28T03:49:22.595Z,63.22
2016-09-28T03:50:23.335Z,62.52
2016-09-28T03:51:24.009Z,62.81
2016-09-28T03:52:24.723Z,62.71
2016-09-28T03:53:25.398Z,62.74
2016-09-28T03:54:26.086Z,63.19
2016-09-28T03:55:26.773Z,62.52
2016-09-28T03:56:27.478Z,63.03
2016-09-28T03:57:28.172Z,62.33
2016-09-28T03:58:28.874Z,62.9
2016-09-28T03:59:29.624Z,62.62
2016-09-28T04:00:30.321Z,63.42
2016-09-28T04:01:31.033Z,62.84
2016-09-28T04:02:31.708Z,63.03
2016-09-28T04:03:32.406Z,62.45
2016-09-28T04:04:33.115Z,62.55
2016-09-28T04:05:33.786Z,63.32
2016-09-28T04:06:34.472Z,63.86
2016-09-28T04:07:35.152Z,63.22
2016-09-28T04:08:35.875Z,63.12
2016-09-28T04:09:36.627Z,63.51
2016-09-28T04:10:37.312Z,63.51
2016-09-28T04:11:37.990Z,63.79
2016-09-28T04:12:38.743Z,63.7
2016-09-28T04:13:39.446Z,63.7
2016-09-28T04:14:40.155Z,63.32
2016-09-28T04:15:40.831Z,63.32
2016-09-28T04:16:41.568Z,63.32
2016-09-28T04:17:42.275Z,63.7
2016-09-28T04:18:42.950Z,63.67
2016-09-28T04:19:43.625Z,63.99
2016-09-28T04:20:44.308Z,63.32
2016-09-28T04:21:45.001Z,63.79
2016-09-28T04:22:45.716Z,63.67
2016-09-28T04:23:46.412Z,63.86
2016-09-28T04:24:47.096Z,64.09
2016-09-28T04:25:47.793Z,63.89
2016-09-28T04:26:48.472Z,63.89
2016-09-28T04:27:49.154Z,63.99
2016-09-28T04:28:49.922Z,64.56
2016-09-28T04:29:50.603Z,64.05
2016-09-28T04:30:51.299Z,64.34
2016-09-28T04:31:52.024Z,64.85
2016-09-28T04:32:52.728Z,64.56
2016-09-28T04:33:53.419Z,64.56
2016-09-28T04:34:54.119Z,64.34
2016-09-28T04:35:54.808Z,64.63
2016-09-28T04:36:55.501Z,65.11
2016-09-28T04:37:56.187Z,65.3
2016-09-28T04:38:56.862Z,65.11
2016-09-28T04:39:57.575Z,65.01
2016-09-28T04:40:58.255Z,64.92
2016-09-28T04:41:58.965Z,64.92
2016-09-28T04:42:59.685Z,65.11
2016-09-28T04:44:01.229Z,65.3
2016-09-28T04:45:01.921Z,65.39
2016-09-28T04:46:02.631Z,65.3
2016-09-28T04:47:03.327Z,65.11
2016-09-28T04:48:04.024Z,66.16
2016-09-28T04:49:04.714Z,66.26
2016-09-28T04:50:05.420Z,67.22
2016-09-28T04:51:06.129Z,67.6
2016-09-28T04:52:07.006Z,67.41
2016-09-28T04:53:07.716Z,67.12
2016-09-28T04:54:08.577Z,67.32
2016-09-28T04:55:09.268Z,67.22
2016-09-28T04:56:09.972Z,67.22
2016-09-28T04:57:10.663Z,67.12
2016-09-28T04:58:11.344Z,67.41
2016-09-28T04:59:12.029Z,67.02
2016-09-28T05:00:12.724Z,67.41
2016-09-28T05:01:13.446Z,66.93
2016-09-28T05:02:14.297Z,67.6
2016-09-28T05:03:15.977Z,67.6
2016-09-28T05:04:16.790Z,67.41
2016-09-28T05:05:17.470Z,67.41
2016-09-28T05:06:18.181Z,67.41
2016-09-28T05:07:18.852Z,67.41
2016-09-28T05:08:19.570Z,67.41
2016-09-28T05:09:20.263Z,67.22
2016-09-28T05:10:20.984Z,67.22
2016-09-28T05:11:21.659Z,67.41
2016-09-28T05:12:22.376Z,67.5
2016-09-28T05:13:23.059Z,67.69
2016-09-28T05:14:23.747Z,67.41
2016-09-28T05:15:24.441Z,67.6
2016-09-28T05:16:25.146Z,67.5
2016-09-28T05:17:25.847Z,67.5
2016-09-28T05:18:26.529Z,67.5
2016-09-28T05:19:27.215Z,67.41
2016-09-28T05:20:27.890Z,67.41
2016-09-28T05:21:28.613Z,67.41
2016-09-28T05:22:29.285Z,67.5
2016-09-28T05:23:29.975Z,67.32
2016-09-28T05:24:30.670Z,67.41
2016-09-28T05:25:31.377Z,67.41
2016-09-28T05:26:32.073Z,67.89
2016-09-28T05:27:32.781Z,67.89
2016-09-28T05:28:33.461Z,67.79
2016-09-28T05:29:34.164Z,67.99
2016-09-28T05:30:34.845Z,68.46
2016-09-28T05:31:35.557Z,68.95
2016-09-28T05:32:36.239Z,68.66
2016-09-28T05:33:36.951Z,68.85
2016-09-28T05:34:37.691Z,69.42
2016-09-28T05:35:38.368Z,69.62
2016-09-28T05:36:39.058Z,69.52
2016-09-28T05:37:39.753Z,70.19
2016-09-28T05:38:40.459Z,69.9
2016-09-28T05:39:41.151Z,70.38
2016-09-28T05:40:41.840Z,70.38
2016-09-28T05:41:42.562Z,70.19
2016-09-28T05:42:43.235Z,70.48
2016-09-28T05:43:43.929Z,71.15
2016-09-28T05:44:44.614Z,71.15
2016-09-28T05:45:45.331Z,72.11
2016-09-28T05:46:46.054Z,71.63
2016-09-28T05:47:46.751Z,71.15
2016-09-28T05:48:47.437Z,71.53
2016-09-28T05:49:48.143Z,72.49
2016-09-28T05:50:48.853Z,72.59
2016-09-28T05:51:49.539Z,72.94
2016-09-28T05:52:50.232Z,72.68
2016-09-28T05:53:50.909Z,72.78
2016-09-28T05:54:51.607Z,73.07
2016-09-28T05:55:52.343Z,73.51
2016-09-28T05:56:53.082Z,73.65
2016-09-28T05:57:53.778Z,73.55
2016-09-28T05:58:54.462Z,73.45
2016-09-28T05:59:55.167Z,73.35
2016-09-28T06:00:55.958Z,73.55
2016-09-28T06:01:56.659Z,73.55
2016-09-28T06:02:57.345Z,73.8
2016-09-28T06:03:58.043Z,73.45
2016-09-28T06:04:58.738Z,73.7
2016-09-28T06:05:59.422Z,73.45
2016-09-28T06:07:00.114Z,72.78
2016-09-28T06:08:00.834Z,72.88
2016-09-28T06:09:01.584Z,73.07
2016-09-28T06:10:02.339Z,73.93
2016-09-28T06:11:03.244Z,74.12
2016-09-28T06:12:07.160Z,73.83
2016-09-28T06:13:07.854Z,73.93
2016-09-28T06:14:08.555Z,73.93
2016-09-28T06:15:09.246Z,73.74
2016-09-28T06:16:09.940Z,73.74
2016-09-28T06:17:10.904Z,74.02
2016-09-28T06:18:12.064Z,73.83
2016-09-28T06:19:12.768Z,73.93
2016-09-28T06:20:13.476Z,73.8
2016-09-28T06:21:14.167Z,74.18
2016-09-28T06:22:14.853Z,73.9
2016-09-28T06:23:15.546Z,73.61
2016-09-28T06:24:16.240Z,73.99
2016-09-28T06:25:16.916Z,73.61
2016-09-28T06:26:17.594Z,74.12
2016-09-28T06:27:18.285Z,73.41
2016-09-28T06:28:19.015Z,73.41
2016-09-28T06:29:19.717Z,73.51
2016-09-28T06:30:20.403Z,72.78
2016-09-28T06:31:21.108Z,72.84
2016-09-28T06:32:21.802Z,72.68
2016-09-28T06:33:22.475Z,72.78
2016-09-28T06:34:23.197Z,72.78
2016-09-28T06:35:23.903Z,72.64
2016-09-28T06:36:24.597Z,72.49
2016-09-28T06:37:25.332Z,72.49
2016-09-28T06:38:26.021Z,72.59
2016-09-28T06:39:26.715Z,72.39
2016-09-28T06:40:27.447Z,72.68
2016-09-28T06:41:28.135Z,72.97
2016-09-28T06:42:28.836Z,72.88
2016-09-28T06:43:29.520Z,72.49
2016-09-28T06:44:30.237Z,72.3
2016-09-28T06:45:30.910Z,72.59
2016-09-28T06:46:31.598Z,72.49
2016-09-28T06:47:32.286Z,72.3
2016-09-28T06:48:33.014Z,72.11
2016-09-28T06:49:33.720Z,71.92
2016-09-28T06:50:34.469Z,71.72
2016-09-28T06:51:35.183Z,71.82
2016-09-28T06:52:35.876Z,71.92
2016-09-28T06:53:36.580Z,71.72
2016-09-28T06:54:37.296Z,71.53
2016-09-28T06:55:37.985Z,71.82
2016-09-28T06:56:38.687Z,71.63
2016-09-28T06:57:39.376Z,71.53
2016-09-28T06:58:40.102Z,71.63
2016-09-28T06:59:40.818Z,71.82
2016-09-28T07:00:41.517Z,72.01
2016-09-28T07:01:42.206Z,71.92
2016-09-28T07:02:42.895Z,71.82
2016-09-28T07:03:43.588Z,71.82
2016-09-28T07:04:44.268Z,72.01
2016-09-28T07:05:44.969Z,71.86
2016-09-28T07:06:45.664Z,71.92
2016-09-28T07:07:46.382Z,71.66
2016-09-28T07:08:47.071Z,71.76
2016-09-28T07:09:47.788Z,71.76
2016-09-28T07:10:48.482Z,71.95
2016-09-28T07:11:49.178Z,71.95
2016-09-28T07:12:49.903Z,71.86
2016-09-28T07:13:50.602Z,71.66
2016-09-28T07:14:51.299Z,72.24
2016-09-28T07:15:51.997Z,72.14
2016-09-28T07:16:52.697Z,72.14
2016-09-28T07:17:53.389Z,72.24
2016-09-28T07:18:54.076Z,72.33
2016-09-28T07:19:54.795Z,72.33
2016-09-28T07:20:55.492Z,72.33
2016-09-28T07:21:56.186Z,72.53
2016-09-28T07:22:56.879Z,72.24
2016-09-28T07:23:57.575Z,72.53
2016-09-28T07:24:58.300Z,72.63
2016-09-28T07:25:59.005Z,72.63
2016-09-28T07:26:59.697Z,72.05
2016-09-28T07:28:00.395Z,72.24
2016-09-28T07:29:01.082Z,72.05
2016-09-28T07:30:01.775Z,72.56
2016-09-28T07:31:02.459Z,72.18
2016-09-28T07:32:03.148Z,72.47
2016-09-28T07:33:03.837Z,72.95
2016-09-28T07:34:04.526Z,72.56
2016-09-28T07:35:05.216Z,72.53
2016-09-28T07:36:05.912Z,73.14
2016-09-28T07:37:06.597Z,73
2016-09-28T07:38:07.291Z,73.2
2016-09-28T07:39:07.976Z,73.24
2016-09-28T07:40:08.662Z,73.49
2016-09-28T07:41:09.369Z,73.39
2016-09-28T07:42:10.046Z,73.68
2016-09-28T07:43:10.744Z,73.77
2016-09-28T07:44:11.556Z,73.68
2016-09-28T07:45:12.281Z,74.26
2016-09-28T07:46:12.977Z,74.06
2016-09-28T07:47:13.667Z,73.97
2016-09-28T07:48:14.400Z,73.68
2016-09-28T07:49:15.106Z,73.97
2016-09-28T07:50:15.821Z,74.16
2016-09-28T07:51:16.511Z,74.54
2016-09-28T07:52:17.189Z,74.48
2016-09-28T07:53:17.885Z,74.68
2016-09-28T07:54:18.583Z,74.58
2016-09-28T07:55:19.286Z,74.58
2016-09-28T07:56:19.983Z,74.39
2016-09-28T07:57:20.673Z,74.68
2016-09-28T07:58:21.358Z,74.58
2016-09-28T07:59:22.035Z,74.48
2016-09-28T08:00:22.745Z,74.68
2016-09-28T08:01:23.498Z,74.39
2016-09-28T08:02:24.193Z,74.29
2016-09-28T08:03:24.890Z,74.96
2016-09-28T08:04:25.595Z,74.48
2016-09-28T08:05:26.276Z,74.52
2016-09-28T08:06:27.005Z,73.56
2016-09-28T08:07:27.712Z,73.37
2016-09-28T08:08:28.453Z,73.66
2016-09-28T08:09:29.134Z,73.66
2016-09-28T08:10:29.829Z,73.27
2016-09-28T08:11:30.518Z,73.37
2016-09-28T08:12:31.223Z,73.41
2016-09-28T08:13:31.914Z,72.89
2016-09-28T08:14:32.621Z,73.69
2016-09-28T08:15:33.305Z,73.37
2016-09-28T08:16:34.005Z,73.31
2016-09-28T08:17:34.726Z,73.41
2016-09-28T08:18:35.427Z,73.21
2016-09-28T08:19:36.118Z,73.11
2016-09-28T08:20:36.822Z,72.92
2016-09-28T08:21:37.546Z,73.31
2016-09-28T08:22:38.241Z,72.54
2016-09-28T08:23:38.956Z,72.92
2016-09-28T08:24:39.642Z,72.73
2016-09-28T08:25:40.353Z,71.87
2016-09-28T08:26:41.066Z,72.64
2016-09-28T08:27:41.813Z,72.73
2016-09-28T08:28:42.488Z,72.92
2016-09-28T08:29:43.257Z,72.83
2016-09-28T08:30:43.936Z,72.44
2016-09-28T08:31:44.624Z,72.83
2016-09-28T08:32:45.321Z,72.73
2016-09-28T08:33:46.000Z,73.02
2016-09-28T08:34:46.831Z,73.11
2016-09-28T08:35:47.483Z,73.5
2016-09-28T08:36:48.186Z,73.41
2016-09-28T08:37:49.114Z,72.83
2016-09-28T08:38:50.060Z,72.92
2016-09-28T08:39:50.796Z,73.11
2016-09-28T08:40:51.482Z,73.41
2016-09-28T08:41:52.173Z,72.83
2016-09-28T08:42:52.885Z,72.48
2016-09-28T08:43:53.591Z,72.67
2016-09-28T08:44:54.295Z,72.29
2016-09-28T08:45:55.008Z,71.52
2016-09-28T08:46:55.710Z,71.14
2016-09-28T08:47:56.411Z,71.61
2016-09-28T08:48:57.100Z,72.09
2016-09-28T08:49:57.808Z,71.14
2016-09-28T08:50:58.497Z,71.08
2016-09-28T08:51:59.183Z,71.04
2016-09-28T08:52:59.872Z,71.14
2016-09-28T08:54:00.576Z,71.42
2016-09-28T08:55:01.272Z,71.55
2016-09-28T08:56:01.972Z,71.04
2016-09-28T08:57:02.706Z,70.68
2016-09-28T08:58:03.449Z,70.78
2016-09-28T08:59:04.164Z,70.88
2016-09-28T09:00:04.857Z,70.98
2016-09-28T09:01:05.561Z,70.59
2016-09-28T09:02:06.247Z,70.68
2016-09-28T09:03:06.954Z,70.98
2016-09-28T09:04:07.656Z,70.98
2016-09-28T09:05:08.358Z,70.59
2016-09-28T09:06:09.049Z,70.01
2016-09-28T09:07:09.739Z,70.5
2016-09-28T09:08:10.431Z,70.4
2016-09-28T09:09:11.133Z,70.3
2016-09-28T09:10:11.829Z,70.11
2016-09-28T09:11:12.529Z,69.82
2016-09-28T09:12:13.234Z,70.5
2016-09-28T09:13:13.936Z,69.92
2016-09-28T09:14:14.629Z,70.01
2016-09-28T09:15:15.321Z,69.44
2016-09-28T09:16:16.024Z,69.73
2016-09-28T09:17:16.734Z,70.3
2016-09-28T09:18:17.463Z,69.92
2016-09-28T09:19:18.162Z,70.68
2016-09-28T09:20:18.876Z,70.59
2016-09-28T09:21:19.558Z,69.92
2016-09-28T09:22:20.298Z,70.4
2016-09-28T09:23:20.966Z,69.92
2016-09-28T09:24:21.717Z,70.4
2016-09-28T09:25:22.466Z,70.5
2016-09-28T09:26:23.213Z,70.4
2016-09-28T09:27:23.931Z,70.4
2016-09-28T09:28:24.638Z,70.5
2016-09-28T09:29:25.403Z,70.4
2016-09-28T09:30:26.200Z,70.4
2016-09-28T09:31:27.028Z,70.5
2016-09-28T09:32:27.750Z,70.68
2016-09-28T09:33:28.484Z,71.08
2016-09-28T09:34:29.202Z,70.88
2016-09-28T09:35:29.939Z,70.78
2016-09-28T09:36:30.694Z,70.78
2016-09-28T09:37:31.448Z,70.68
2016-09-28T09:38:32.193Z,70.68
2016-09-28T09:39:32.992Z,70.59
2016-09-28T09:40:33.762Z,70.46
2016-09-28T09:41:34.489Z,71.23
2016-09-28T09:42:35.217Z,71.26
2016-09-28T09:43:36.001Z,71.23
2016-09-28T09:44:36.723Z,71.14
2016-09-28T09:45:37.509Z,71.14
2016-09-28T09:46:38.316Z,70.56
2016-09-28T09:47:39.151Z,71.33
2016-09-28T09:48:40.049Z,70.78
2016-09-28T09:49:40.903Z,70.65
2016-09-28T09:50:41.673Z,70.68
2016-09-28T09:51:42.531Z,70.78
2016-09-28T09:52:43.307Z,71.17
2016-09-28T09:53:44.112Z,70.78
2016-09-28T09:54:44.874Z,71.08
2016-09-28T09:55:45.631Z,71.08
2016-09-28T09:56:46.525Z,70.94
2016-09-28T09:57:47.295Z,70.75
2016-09-28T09:58:48.069Z,70.65
2016-09-28T09:59:48.820Z,70.68
2016-09-28T10:00:49.593Z,70.78
2016-09-28T10:01:50.344Z,70.78
2016-09-28T10:02:51.062Z,70.75
2016-09-28T10:03:51.796Z,70.98
2016-09-28T10:04:52.525Z,70.46
2016-09-28T10:05:53.259Z,70.37
2016-09-28T10:06:53.985Z,70.21
2016-09-28T10:07:54.706Z,70.65
2016-09-28T10:08:55.457Z,70.4
2016-09-28T10:09:56.192Z,70.11
2016-09-28T10:10:56.931Z,69.92
2016-09-28T10:11:57.733Z,70.21
2016-09-28T10:12:58.449Z,69.63
2016-09-28T10:13:59.187Z,69.82
2016-09-28T10:14:59.926Z,70.4
2016-09-28T10:16:00.683Z,69.63
2016-09-28T10:17:01.413Z,69.63
2016-09-28T10:18:02.167Z,69.44
2016-09-28T10:19:02.917Z,69.24
2016-09-28T10:20:03.646Z,68.96
2016-09-28T10:21:04.431Z,68.67
2016-09-28T10:22:05.196Z,69.15
2016-09-28T10:23:05.956Z,68.48
2016-09-28T10:24:06.695Z,68.86
2016-09-28T10:25:07.478Z,68.13
2016-09-28T10:26:08.285Z,68.7
2016-09-28T10:27:08.989Z,67.93
2016-09-28T10:28:09.701Z,68.09
2016-09-28T10:29:10.462Z,68.22
2016-09-28T10:30:11.202Z,68.09
2016-09-28T10:31:11.913Z,67.61
2016-09-28T10:32:12.672Z,67.61
2016-09-28T10:33:13.394Z,68.19
2016-09-28T10:34:14.109Z,68.67
2016-09-28T10:35:14.805Z,67.93
2016-09-28T10:36:15.531Z,67.83
2016-09-28T10:37:16.261Z,67.55
2016-09-28T10:38:16.975Z,67.55
2016-09-28T10:39:17.722Z,67.65
2016-09-28T10:40:18.470Z,67.93
2016-09-28T10:41:19.206Z,67.74
2016-09-28T10:42:19.924Z,67.55
2016-09-28T10:43:20.652Z,67.45
2016-09-28T10:44:21.403Z,66.78
2016-09-28T10:45:22.169Z,66.68
2016-09-28T10:46:22.898Z,66.68
2016-09-28T10:47:23.694Z,66.68
2016-09-28T10:48:24.408Z,66.58
2016-09-28T10:49:25.157Z,65.91
2016-09-28T10:50:25.905Z,65.81
2016-09-28T10:51:26.649Z,64.56
2016-09-28T10:52:27.393Z,64.66
2016-09-28T10:53:28.146Z,64.86
2016-09-28T10:54:28.870Z,64.18
2016-09-28T10:55:29.612Z,64.47
2016-09-28T10:56:30.322Z,64.21
2016-09-28T10:57:31.046Z,63.73
2016-09-28T10:58:31.747Z,62.38
2016-09-28T10:59:32.443Z,62.09
2016-09-28T11:00:33.133Z,62.19
2016-09-28T11:01:33.827Z,61.77
2016-09-28T11:02:34.546Z,61.9
2016-09-28T11:03:35.255Z,61.52
2016-09-28T11:04:35.944Z,60.65
2016-09-28T11:05:36.655Z,61.13
2016-09-28T11:06:37.360Z,60.75
2016-09-28T11:07:38.082Z,60.65
2016-09-28T11:08:38.782Z,60.55
2016-09-28T11:09:39.467Z,60.17
2016-09-28T11:10:40.190Z,59.4
2016-09-28T11:11:40.883Z,60.17
2016-09-28T11:12:41.586Z,58.82
2016-09-28T11:13:42.291Z,58.82
2016-09-28T11:14:42.983Z,58.82
2016-09-28T11:15:43.681Z,59.59
2016-09-28T11:16:44.368Z,59.88
2016-09-28T11:17:45.088Z,60.46
2016-09-28T11:18:45.804Z,59.69
2016-09-28T11:19:46.486Z,59.01
2016-09-28T11:20:47.179Z,59.78
2016-09-28T11:21:47.877Z,59.11
2016-09-28T11:22:48.585Z,58.34
2016-09-28T11:23:49.249Z,58.15
2016-09-28T11:24:49.976Z,58.44
2016-09-28T11:25:50.682Z,58.24
2016-09-28T11:26:51.546Z,58.24
2016-09-28T11:27:52.121Z,57.37
2016-09-28T11:28:52.811Z,57.57
2016-09-28T11:29:53.548Z,57.76
2016-09-28T11:30:54.258Z,57.76
2016-09-28T11:31:54.968Z,57.28
2016-09-28T11:32:55.687Z,57.57
2016-09-28T11:33:56.394Z,58.53
2016-09-28T11:34:57.083Z,58.44
2016-09-28T11:35:57.775Z,57.86
2016-09-28T11:36:58.464Z,58.05
2016-09-28T11:37:59.148Z,57.86
2016-09-28T11:38:59.843Z,58.53
2016-09-28T11:40:00.587Z,57.95
2016-09-28T11:41:01.268Z,58.44
2016-09-28T11:42:01.953Z,57.76
2016-09-28T11:43:02.692Z,58.34
2016-09-28T11:44:03.430Z,58.72
2016-09-28T11:45:04.158Z,58.15
2016-09-28T11:46:04.890Z,58.44
2016-09-28T11:47:05.596Z,58.05
2016-09-28T11:48:06.326Z,58.24
2016-09-28T11:49:07.014Z,58.34
2016-09-28T11:50:07.772Z,58.44
2016-09-28T11:51:08.474Z,58.44
2016-09-28T11:52:09.190Z,59.01
2016-09-28T11:53:09.894Z,58.44
2016-09-28T11:54:10.599Z,58.53
2016-09-28T11:55:11.287Z,58.24
2016-09-28T11:56:11.976Z,58.05
2016-09-28T11:57:12.702Z,58.44
2016-09-28T11:58:13.428Z,58.53
2016-09-28T11:59:14.191Z,58.05
2016-09-28T12:00:14.885Z,58.24
2016-09-28T12:01:15.625Z,58.24
2016-09-28T12:02:16.350Z,58.34
2016-09-28T12:03:17.055Z,58.24
2016-09-28T12:04:17.765Z,58.34
2016-09-28T12:05:18.471Z,59.01
2016-09-28T12:06:19.163Z,58.82
2016-09-28T12:07:19.865Z,58.82
2016-09-28T12:08:20.591Z,58.82
2016-09-28T12:09:21.302Z,59.01
2016-09-28T12:10:22.047Z,58.15
2016-09-28T12:11:22.743Z,58.44
2016-09-28T12:12:23.452Z,59.01
2016-09-28T12:13:24.173Z,58.56
2016-09-28T12:14:24.870Z,58.37
2016-09-28T12:15:25.562Z,58.47
2016-09-28T12:16:26.271Z,58.08
2016-09-28T12:17:26.967Z,57.69
2016-09-28T12:18:27.688Z,57.79
2016-09-28T12:19:28.405Z,58.27
2016-09-28T12:20:29.098Z,57.6
2016-09-28T12:21:29.780Z,57.31
2016-09-28T12:22:30.468Z,56.63
2016-09-28T12:23:31.182Z,57.31
2016-09-28T12:24:31.883Z,56.82
2016-09-28T12:25:32.595Z,57.31
2016-09-28T12:26:33.287Z,57.5
2016-09-28T12:27:33.962Z,57.4
2016-09-28T12:28:34.655Z,57.5
2016-09-28T12:29:35.359Z,57.4
2016-09-28T12:30:36.068Z,57.98
2016-09-28T12:31:36.750Z,57.4
2016-09-28T12:32:37.452Z,58.08
2016-09-28T12:33:38.166Z,57.5
2016-09-28T12:34:38.869Z,58.27
2016-09-28T12:35:39.562Z,57.21
2016-09-28T12:36:40.290Z,57.21
2016-09-28T12:37:40.982Z,57.31
2016-09-28T12:38:41.665Z,57.5
2016-09-28T12:39:42.388Z,57.6
2016-09-28T12:40:43.110Z,57.6
2016-09-28T12:41:43.843Z,57.4
2016-09-28T12:42:44.535Z,57.5
2016-09-28T12:43:45.221Z,57.6
2016-09-28T12:44:45.898Z,57.5
2016-09-28T12:45:46.606Z,57.79
2016-09-28T12:46:47.309Z,57.6
2016-09-28T12:47:48.014Z,57.12
2016-09-28T12:48:48.732Z,57.4
2016-09-28T12:49:49.439Z,56.92
2016-09-28T12:50:50.156Z,57.31
2016-09-28T12:51:50.933Z,57.4
2016-09-28T12:52:51.605Z,57.79
2016-09-28T12:53:52.603Z,57.31
2016-09-28T12:54:53.297Z,57.79
2016-09-28T12:55:54.012Z,57.5
2016-09-28T12:56:54.691Z,57.69
2016-09-28T12:57:55.405Z,57.6
2016-09-28T12:58:56.150Z,57.31
2016-09-28T12:59:56.846Z,58.08
2016-09-28T13:00:57.559Z,58.17
2016-09-28T13:01:58.277Z,58.08
2016-09-28T13:02:59.020Z,58.17
2016-09-28T13:03:59.712Z,57.89
2016-09-28T13:05:00.403Z,58.08
2016-09-28T13:06:01.088Z,58.37